sensor_id;sensor_type;location;lat;lon;timestamp;P1;durP1;ratioP1;P2;durP2;ratioP2
25435;SDS011;13363;52.772;-3.890;2024-03-06T00:01:11;6.30;;;1.70;;
25435;SDS011;13363;52.772;-3.890;2024-03-06T00:03:37;4.10;;;1.30;;
25435;SDS011;13363;52.772;-3.890;2024-03-06T00:06:03;9.23;;;1.50;;
25435;SDS011;13363;52.772;-3.890;2024-03-06T00:08:29;4.73;;;1.70;;
25435;SDS011;13363;52.772;-3.890;2024-03-06T00:10:56;1.70;;;1.57;;
25435;SDS011;13363;52.772;-3.890;2024-03-06T00:13:22;3.90;;;1.33;;
25435;SDS011;13363;52.772;-3.890;2024-03-06T00:15:48;1.97;;;1.20;;
25435;SDS011;13363;52.772;-3.890;2024-03-06T00:18:14;3.50;;;1.50;;
25435;SDS011;13363;52.772;-3.890;2024-03-06T00:20:40;5.37;;;1.27;;
25435;SDS011;13363;52.772;-3.890;2024-03-06T00:23:07;3.43;;;1.53;;
25435;SDS011;13363;52.772;-3.890;2024-03-06T00:25:34;7.03;;;1.77;;
25435;SDS011;13363;52.772;-3.890;2024-03-06T00:28:01;7.70;;;1.90;;
25435;SDS011;13363;52.772;-3.890;2024-03-06T00:30:27;4.17;;;1.73;;
25435;SDS011;13363;52.772;-3.890;2024-03-06T00:32:53;4.03;;;1.40;;
25435;SDS011;13363;52.772;-3.890;2024-03-06T00:35:19;2.93;;;1.90;;
25435;SDS011;13363;52.772;-3.890;2024-03-06T00:37:45;5.63;;;1.97;;
25435;SDS011;13363;52.772;-3.890;2024-03-06T00:40:12;4.80;;;1.30;;
25435;SDS011;13363;52.772;-3.890;2024-03-06T00:42:38;4.63;;;2.30;;
25435;SDS011;13363;52.772;-3.890;2024-03-06T00:45:06;4.70;;;1.70;;
25435;SDS011;13363;52.772;-3.890;2024-03-06T00:47:32;4.03;;;1.23;;
25435;SDS011;13363;52.772;-3.890;2024-03-06T00:49:59;6.53;;;1.60;;
25435;SDS011;13363;52.772;-3.890;2024-03-06T00:52:25;1.73;;;1.27;;
25435;SDS011;13363;52.772;-3.890;2024-03-06T00:54:52;5.00;;;1.40;;
25435;SDS011;13363;52.772;-3.890;2024-03-06T00:57:18;4.20;;;1.30;;
25435;SDS011;13363;52.772;-3.890;2024-03-06T00:59:44;4.00;;;1.37;;
25435;SDS011;13363;52.772;-3.890;2024-03-06T01:02:10;5.30;;;1.13;;
25435;SDS011;13363;52.772;-3.890;2024-03-06T01:04:37;4.60;;;1.80;;
25435;SDS011;13363;52.772;-3.890;2024-03-06T01:07:03;4.00;;;1.60;;
25435;SDS011;13363;52.772;-3.890;2024-03-06T01:09:29;2.73;;;1.03;;
25435;SDS011;13363;52.772;-3.890;2024-03-06T01:11:55;2.20;;;1.33;;
25435;SDS011;13363;52.772;-3.890;2024-03-06T01:14:21;4.43;;;1.90;;
25435;SDS011;13363;52.772;-3.890;2024-03-06T01:16:48;5.40;;;1.93;;
25435;SDS011;13363;52.772;-3.890;2024-03-06T01:19:14;4.70;;;1.40;;
25435;SDS011;13363;52.772;-3.890;2024-03-06T01:21:40;2.83;;;1.50;;
25435;SDS011;13363;52.772;-3.890;2024-03-06T01:24:06;2.63;;;1.40;;
25435;SDS011;13363;52.772;-3.890;2024-03-06T01:26:32;1.50;;;1.00;;
25435;SDS011;13363;52.772;-3.890;2024-03-06T01:29:00;2.37;;;1.20;;
25435;SDS011;13363;52.772;-3.890;2024-03-06T01:31:26;4.40;;;1.77;;
25435;SDS011;13363;52.772;-3.890;2024-03-06T01:33:53;2.50;;;1.50;;
25435;SDS011;13363;52.772;-3.890;2024-03-06T01:36:19;3.97;;;1.43;;
25435;SDS011;13363;52.772;-3.890;2024-03-06T01:38:45;3.70;;;1.50;;
25435;SDS011;13363;52.772;-3.890;2024-03-06T01:41:11;3.97;;;1.23;;
25435;SDS011;13363;52.772;-3.890;2024-03-06T01:43:38;11.27;;;2.20;;
25435;SDS011;13363;52.772;-3.890;2024-03-06T01:46:07;2.53;;;1.20;;
25435;SDS011;13363;52.772;-3.890;2024-03-06T01:48:33;2.37;;;1.53;;
25435;SDS011;13363;52.772;-3.890;2024-03-06T01:51:01;3.80;;;1.50;;
25435;SDS011;13363;52.772;-3.890;2024-03-06T01:53:30;2.07;;;1.10;;
25435;SDS011;13363;52.772;-3.890;2024-03-06T01:55:57;2.53;;;1.47;;
25435;SDS011;13363;52.772;-3.890;2024-03-06T01:58:23;2.97;;;1.77;;
25435;SDS011;13363;52.772;-3.890;2024-03-06T02:00:50;5.43;;;1.33;;
25435;SDS011;13363;52.772;-3.890;2024-03-06T02:03:17;4.40;;;1.57;;
25435;SDS011;13363;52.772;-3.890;2024-03-06T02:05:50;7.23;;;1.50;;
25435;SDS011;13363;52.772;-3.890;2024-03-06T02:08:16;6.07;;;1.67;;
25435;SDS011;13363;52.772;-3.890;2024-03-06T02:10:44;1.67;;;1.10;;
25435;SDS011;13363;52.772;-3.890;2024-03-06T02:13:10;8.07;;;1.60;;
25435;SDS011;13363;52.772;-3.890;2024-03-06T02:15:36;5.17;;;1.30;;
25435;SDS011;13363;52.772;-3.890;2024-03-06T02:18:05;3.67;;;1.57;;
25435;SDS011;13363;52.772;-3.890;2024-03-06T02:20:32;2.60;;;1.13;;
25435;SDS011;13363;52.772;-3.890;2024-03-06T02:22:59;4.40;;;1.97;;
25435;SDS011;13363;52.772;-3.890;2024-03-06T02:25:26;4.10;;;1.77;;
25435;SDS011;13363;52.772;-3.890;2024-03-06T02:27:52;3.20;;;1.50;;
25435;SDS011;13363;52.772;-3.890;2024-03-06T02:30:21;4.90;;;1.63;;
25435;SDS011;13363;52.772;-3.890;2024-03-06T02:32:47;4.03;;;1.53;;
25435;SDS011;13363;52.772;-3.890;2024-03-06T02:35:13;2.00;;;1.10;;
25435;SDS011;13363;52.772;-3.890;2024-03-06T02:37:41;7.47;;;1.53;;
25435;SDS011;13363;52.772;-3.890;2024-03-06T02:40:07;4.70;;;1.80;;
25435;SDS011;13363;52.772;-3.890;2024-03-06T02:42:35;5.53;;;1.50;;
25435;SDS011;13363;52.772;-3.890;2024-03-06T02:45:05;1.43;;;1.30;;
25435;SDS011;13363;52.772;-3.890;2024-03-06T02:47:31;6.67;;;1.40;;
25435;SDS011;13363;52.772;-3.890;2024-03-06T02:49:58;4.23;;;1.27;;
25435;SDS011;13363;52.772;-3.890;2024-03-06T02:52:24;2.57;;;1.53;;
25435;SDS011;13363;52.772;-3.890;2024-03-06T02:54:50;3.13;;;1.60;;
25435;SDS011;13363;52.772;-3.890;2024-03-06T02:57:16;1.27;;;1.10;;
25435;SDS011;13363;52.772;-3.890;2024-03-06T02:59:42;5.97;;;1.13;;
25435;SDS011;13363;52.772;-3.890;2024-03-06T03:02:08;4.63;;;1.50;;
25435;SDS011;13363;52.772;-3.890;2024-03-06T03:04:34;5.37;;;1.43;;
25435;SDS011;13363;52.772;-3.890;2024-03-06T03:07:01;4.97;;;1.33;;
25435;SDS011;13363;52.772;-3.890;2024-03-06T03:09:27;3.27;;;1.50;;
25435;SDS011;13363;52.772;-3.890;2024-03-06T03:11:53;4.03;;;1.80;;
25435;SDS011;13363;52.772;-3.890;2024-03-06T03:14:19;3.00;;;1.37;;
25435;SDS011;13363;52.772;-3.890;2024-03-06T03:16:45;4.33;;;1.30;;
25435;SDS011;13363;52.772;-3.890;2024-03-06T03:19:11;4.83;;;1.30;;
25435;SDS011;13363;52.772;-3.890;2024-03-06T03:21:37;6.80;;;1.30;;
25435;SDS011;13363;52.772;-3.890;2024-03-06T03:24:04;2.63;;;1.10;;
25435;SDS011;13363;52.772;-3.890;2024-03-06T03:26:30;3.03;;;1.40;;
25435;SDS011;13363;52.772;-3.890;2024-03-06T03:28:56;4.20;;;1.33;;
25435;SDS011;13363;52.772;-3.890;2024-03-06T03:31:23;3.63;;;1.50;;
25435;SDS011;13363;52.772;-3.890;2024-03-06T03:33:49;3.43;;;1.37;;
25435;SDS011;13363;52.772;-3.890;2024-03-06T03:36:15;1.67;;;1.00;;
25435;SDS011;13363;52.772;-3.890;2024-03-06T03:38:41;2.20;;;1.10;;
25435;SDS011;13363;52.772;-3.890;2024-03-06T03:41:10;3.13;;;1.70;;
25435;SDS011;13363;52.772;-3.890;2024-03-06T03:43:41;3.77;;;1.60;;
25435;SDS011;13363;52.772;-3.890;2024-03-06T03:46:08;5.40;;;1.30;;
25435;SDS011;13363;52.772;-3.890;2024-03-06T03:48:34;2.43;;;1.00;;
25435;SDS011;13363;52.772;-3.890;2024-03-06T03:51:02;5.87;;;1.50;;
25435;SDS011;13363;52.772;-3.890;2024-03-06T03:53:32;2.97;;;1.10;;
25435;SDS011;13363;52.772;-3.890;2024-03-06T03:55:58;4.60;;;1.27;;
25435;SDS011;13363;52.772;-3.890;2024-03-06T03:58:25;5.80;;;1.47;;
25435;SDS011;13363;52.772;-3.890;2024-03-06T04:00:51;5.93;;;1.37;;
25435;SDS011;13363;52.772;-3.890;2024-03-06T04:03:20;5.67;;;1.13;;
25435;SDS011;13363;52.772;-3.890;2024-03-06T04:05:49;3.77;;;1.37;;
25435;SDS011;13363;52.772;-3.890;2024-03-06T04:08:15;6.87;;;2.10;;
25435;SDS011;13363;52.772;-3.890;2024-03-06T04:10:42;4.20;;;1.13;;
25435;SDS011;13363;52.772;-3.890;2024-03-06T04:13:11;3.47;;;1.30;;
25435;SDS011;13363;52.772;-3.890;2024-03-06T04:15:37;2.57;;;1.30;;
25435;SDS011;13363;52.772;-3.890;2024-03-06T04:18:04;2.80;;;1.20;;
25435;SDS011;13363;52.772;-3.890;2024-03-06T04:20:30;1.47;;;0.97;;
25435;SDS011;13363;52.772;-3.890;2024-03-06T04:22:56;1.67;;;1.13;;
25435;SDS011;13363;52.772;-3.890;2024-03-06T04:25:22;2.77;;;1.30;;
25435;SDS011;13363;52.772;-3.890;2024-03-06T04:27:48;4.43;;;1.27;;
25435;SDS011;13363;52.772;-3.890;2024-03-06T04:30:15;5.07;;;1.37;;
25435;SDS011;13363;52.772;-3.890;2024-03-06T04:32:41;4.10;;;1.40;;
25435;SDS011;13363;52.772;-3.890;2024-03-06T04:35:07;2.73;;;1.60;;
25435;SDS011;13363;52.772;-3.890;2024-03-06T04:37:36;4.67;;;2.03;;
25435;SDS011;13363;52.772;-3.890;2024-03-06T04:40:03;3.90;;;1.57;;
25435;SDS011;13363;52.772;-3.890;2024-03-06T04:42:33;3.63;;;1.30;;
25435;SDS011;13363;52.772;-3.890;2024-03-06T04:45:01;7.70;;;1.47;;
25435;SDS011;13363;52.772;-3.890;2024-03-06T04:47:28;4.43;;;1.40;;
25435;SDS011;13363;52.772;-3.890;2024-03-06T04:49:54;5.07;;;1.50;;
25435;SDS011;13363;52.772;-3.890;2024-03-06T04:52:20;4.33;;;1.20;;
25435;SDS011;13363;52.772;-3.890;2024-03-06T04:54:46;2.83;;;1.30;;
25435;SDS011;13363;52.772;-3.890;2024-03-06T04:57:13;4.23;;;1.40;;
25435;SDS011;13363;52.772;-3.890;2024-03-06T04:59:39;6.50;;;1.80;;
25435;SDS011;13363;52.772;-3.890;2024-03-06T05:02:05;4.87;;;1.70;;
25435;SDS011;13363;52.772;-3.890;2024-03-06T05:04:31;4.83;;;1.80;;
25435;SDS011;13363;52.772;-3.890;2024-03-06T05:06:57;2.07;;;1.20;;
25435;SDS011;13363;52.772;-3.890;2024-03-06T05:09:23;5.43;;;1.00;;
25435;SDS011;13363;52.772;-3.890;2024-03-06T05:11:50;5.03;;;1.50;;
25435;SDS011;13363;52.772;-3.890;2024-03-06T05:14:16;4.07;;;1.37;;
25435;SDS011;13363;52.772;-3.890;2024-03-06T05:16:42;1.63;;;1.10;;
25435;SDS011;13363;52.772;-3.890;2024-03-06T05:19:08;5.23;;;1.73;;
25435;SDS011;13363;52.772;-3.890;2024-03-06T05:21:36;4.33;;;1.20;;
25435;SDS011;13363;52.772;-3.890;2024-03-06T05:24:02;5.03;;;1.50;;
25435;SDS011;13363;52.772;-3.890;2024-03-06T05:26:28;6.40;;;1.67;;
25435;SDS011;13363;52.772;-3.890;2024-03-06T05:28:54;4.10;;;1.43;;
25435;SDS011;13363;52.772;-3.890;2024-03-06T05:31:20;6.20;;;1.50;;
25435;SDS011;13363;52.772;-3.890;2024-03-06T05:33:48;1.90;;;1.13;;
25435;SDS011;13363;52.772;-3.890;2024-03-06T05:36:17;1.47;;;1.10;;
25435;SDS011;13363;52.772;-3.890;2024-03-06T05:38:44;3.57;;;0.83;;
25435;SDS011;13363;52.772;-3.890;2024-03-06T05:41:10;5.33;;;1.30;;
25435;SDS011;13363;52.772;-3.890;2024-03-06T05:43:36;4.07;;;1.27;;
25435;SDS011;13363;52.772;-3.890;2024-03-06T05:46:02;3.03;;;0.90;;
25435;SDS011;13363;52.772;-3.890;2024-03-06T05:48:29;4.97;;;1.10;;
25435;SDS011;13363;52.772;-3.890;2024-03-06T05:50:55;5.23;;;1.23;;
25435;SDS011;13363;52.772;-3.890;2024-03-06T05:53:22;3.90;;;1.17;;
25435;SDS011;13363;52.772;-3.890;2024-03-06T05:55:48;5.87;;;1.50;;
25435;SDS011;13363;52.772;-3.890;2024-03-06T05:58:14;3.53;;;1.20;;
25435;SDS011;13363;52.772;-3.890;2024-03-06T06:00:41;1.70;;;0.97;;
25435;SDS011;13363;52.772;-3.890;2024-03-06T06:03:08;4.17;;;1.50;;
25435;SDS011;13363;52.772;-3.890;2024-03-06T06:05:38;2.87;;;1.37;;
25435;SDS011;13363;52.772;-3.890;2024-03-06T06:08:05;2.43;;;1.30;;
25435;SDS011;13363;52.772;-3.890;2024-03-06T06:10:31;3.33;;;1.53;;
25435;SDS011;13363;52.772;-3.890;2024-03-06T06:12:57;3.27;;;1.40;;
25435;SDS011;13363;52.772;-3.890;2024-03-06T06:15:23;4.00;;;1.33;;
25435;SDS011;13363;52.772;-3.890;2024-03-06T06:17:49;1.80;;;1.00;;
25435;SDS011;13363;52.772;-3.890;2024-03-06T06:20:15;2.50;;;1.40;;
25435;SDS011;13363;52.772;-3.890;2024-03-06T06:22:43;4.50;;;1.73;;
25435;SDS011;13363;52.772;-3.890;2024-03-06T06:25:09;1.60;;;1.00;;
25435;SDS011;13363;52.772;-3.890;2024-03-06T06:27:35;4.53;;;1.20;;
25435;SDS011;13363;52.772;-3.890;2024-03-06T06:30:01;2.83;;;1.63;;
25435;SDS011;13363;52.772;-3.890;2024-03-06T06:32:28;3.27;;;1.20;;
25435;SDS011;13363;52.772;-3.890;2024-03-06T06:34:54;1.40;;;1.07;;
25435;SDS011;13363;52.772;-3.890;2024-03-06T06:37:21;3.07;;;1.50;;
25435;SDS011;13363;52.772;-3.890;2024-03-06T06:39:47;1.93;;;1.10;;
25435;SDS011;13363;52.772;-3.890;2024-03-06T06:42:14;6.57;;;1.20;;
25435;SDS011;13363;52.772;-3.890;2024-03-06T06:44:40;3.30;;;1.10;;
25435;SDS011;13363;52.772;-3.890;2024-03-06T06:47:07;5.03;;;1.40;;
25435;SDS011;13363;52.772;-3.890;2024-03-06T06:49:33;3.83;;;1.40;;
25435;SDS011;13363;52.772;-3.890;2024-03-06T06:51:59;2.30;;;1.30;;
25435;SDS011;13363;52.772;-3.890;2024-03-06T06:54:25;2.20;;;1.20;;
25435;SDS011;13363;52.772;-3.890;2024-03-06T06:56:51;2.10;;;1.10;;
25435;SDS011;13363;52.772;-3.890;2024-03-06T06:59:20;2.67;;;1.13;;
25435;SDS011;13363;52.772;-3.890;2024-03-06T07:01:47;3.60;;;1.20;;
25435;SDS011;13363;52.772;-3.890;2024-03-06T07:04:13;3.60;;;1.87;;
25435;SDS011;13363;52.772;-3.890;2024-03-06T07:06:41;2.53;;;1.07;;
25435;SDS011;13363;52.772;-3.890;2024-03-06T07:09:08;4.03;;;1.40;;
25435;SDS011;13363;52.772;-3.890;2024-03-06T07:11:34;2.83;;;1.30;;
25435;SDS011;13363;52.772;-3.890;2024-03-06T07:14:00;1.13;;;1.03;;
25435;SDS011;13363;52.772;-3.890;2024-03-06T07:16:26;2.30;;;1.23;;
25435;SDS011;13363;52.772;-3.890;2024-03-06T07:18:54;3.27;;;1.33;;
25435;SDS011;13363;52.772;-3.890;2024-03-06T07:21:20;2.73;;;1.30;;
25435;SDS011;13363;52.772;-3.890;2024-03-06T07:23:46;1.90;;;1.30;;
25435;SDS011;13363;52.772;-3.890;2024-03-06T07:26:12;2.07;;;1.30;;
25435;SDS011;13363;52.772;-3.890;2024-03-06T07:28:38;4.70;;;1.43;;
25435;SDS011;13363;52.772;-3.890;2024-03-06T07:31:04;2.13;;;1.13;;
25435;SDS011;13363;52.772;-3.890;2024-03-06T07:33:31;2.63;;;1.50;;
25435;SDS011;13363;52.772;-3.890;2024-03-06T07:35:59;5.70;;;1.23;;
25435;SDS011;13363;52.772;-3.890;2024-03-06T07:38:25;3.33;;;1.27;;
25435;SDS011;13363;52.772;-3.890;2024-03-06T07:40:51;5.43;;;1.30;;
25435;SDS011;13363;52.772;-3.890;2024-03-06T07:43:18;1.43;;;1.27;;
25435;SDS011;13363;52.772;-3.890;2024-03-06T07:45:44;4.53;;;1.80;;
25435;SDS011;13363;52.772;-3.890;2024-03-06T07:48:12;2.13;;;1.13;;
25435;SDS011;13363;52.772;-3.890;2024-03-06T07:50:38;2.47;;;1.27;;
25435;SDS011;13363;52.772;-3.890;2024-03-06T07:53:05;2.37;;;1.13;;
25435;SDS011;13363;52.772;-3.890;2024-03-06T07:55:31;4.63;;;1.43;;
25435;SDS011;13363;52.772;-3.890;2024-03-06T07:57:57;4.23;;;1.17;;
25435;SDS011;13363;52.772;-3.890;2024-03-06T08:00:23;1.80;;;1.00;;
25435;SDS011;13363;52.772;-3.890;2024-03-06T08:02:49;4.30;;;1.50;;
25435;SDS011;13363;52.772;-3.890;2024-03-06T08:05:16;6.83;;;2.13;;
25435;SDS011;13363;52.772;-3.890;2024-03-06T08:07:42;2.17;;;1.13;;
25435;SDS011;13363;52.772;-3.890;2024-03-06T08:10:10;2.87;;;1.63;;
25435;SDS011;13363;52.772;-3.890;2024-03-06T08:12:42;2.17;;;1.40;;
25435;SDS011;13363;52.772;-3.890;2024-03-06T08:15:12;4.33;;;1.20;;
25435;SDS011;13363;52.772;-3.890;2024-03-06T08:17:39;3.57;;;1.50;;
25435;SDS011;13363;52.772;-3.890;2024-03-06T08:20:06;4.40;;;1.20;;
25435;SDS011;13363;52.772;-3.890;2024-03-06T08:22:34;1.87;;;1.20;;
25435;SDS011;13363;52.772;-3.890;2024-03-06T08:25:07;4.23;;;1.37;;
25435;SDS011;13363;52.772;-3.890;2024-03-06T08:27:34;2.47;;;1.43;;
25435;SDS011;13363;52.772;-3.890;2024-03-06T08:30:01;2.00;;;1.03;;
25435;SDS011;13363;52.772;-3.890;2024-03-06T08:32:29;2.93;;;1.33;;
25435;SDS011;13363;52.772;-3.890;2024-03-06T08:34:55;3.00;;;1.13;;
25435;SDS011;13363;52.772;-3.890;2024-03-06T08:37:22;2.83;;;1.30;;
25435;SDS011;13363;52.772;-3.890;2024-03-06T08:39:48;3.30;;;1.23;;
25435;SDS011;13363;52.772;-3.890;2024-03-06T08:42:14;4.00;;;1.83;;
25435;SDS011;13363;52.772;-3.890;2024-03-06T08:44:43;2.57;;;1.07;;
25435;SDS011;13363;52.772;-3.890;2024-03-06T08:47:10;1.70;;;1.10;;
25435;SDS011;13363;52.772;-3.890;2024-03-06T08:49:36;5.90;;;1.10;;
25435;SDS011;13363;52.772;-3.890;2024-03-06T08:52:02;2.47;;;1.20;;
25435;SDS011;13363;52.772;-3.890;2024-03-06T08:54:28;1.80;;;1.10;;
25435;SDS011;13363;52.772;-3.890;2024-03-06T08:56:56;2.80;;;1.17;;
25435;SDS011;13363;52.772;-3.890;2024-03-06T08:59:24;1.97;;;1.13;;
25435;SDS011;13363;52.772;-3.890;2024-03-06T09:01:53;3.20;;;1.17;;
25435;SDS011;13363;52.772;-3.890;2024-03-06T09:04:20;4.13;;;1.53;;
25435;SDS011;13363;52.772;-3.890;2024-03-06T09:06:46;1.43;;;1.10;;
25435;SDS011;13363;52.772;-3.890;2024-03-06T09:09:14;3.93;;;1.80;;
25435;SDS011;13363;52.772;-3.890;2024-03-06T09:11:41;3.67;;;1.70;;
25435;SDS011;13363;52.772;-3.890;2024-03-06T09:14:07;2.73;;;1.23;;
25435;SDS011;13363;52.772;-3.890;2024-03-06T09:16:34;1.90;;;1.30;;
25435;SDS011;13363;52.772;-3.890;2024-03-06T09:19:00;2.27;;;1.30;;
25435;SDS011;13363;52.772;-3.890;2024-03-06T09:21:27;3.77;;;1.70;;
25435;SDS011;13363;52.772;-3.890;2024-03-06T09:23:53;3.10;;;1.47;;
25435;SDS011;13363;52.772;-3.890;2024-03-06T09:26:19;2.77;;;1.50;;
25435;SDS011;13363;52.772;-3.890;2024-03-06T09:28:45;3.00;;;1.17;;
25435;SDS011;13363;52.772;-3.890;2024-03-06T09:31:12;1.27;;;1.17;;
25435;SDS011;13363;52.772;-3.890;2024-03-06T09:33:41;2.13;;;1.23;;
25435;SDS011;13363;52.772;-3.890;2024-03-06T09:36:10;2.10;;;1.33;;
25435;SDS011;13363;52.772;-3.890;2024-03-06T09:38:38;2.70;;;1.57;;
25435;SDS011;13363;52.772;-3.890;2024-03-06T09:41:05;3.17;;;1.70;;
25435;SDS011;13363;52.772;-3.890;2024-03-06T09:43:32;3.73;;;1.40;;
25435;SDS011;13363;52.772;-3.890;2024-03-06T09:45:59;2.77;;;1.40;;
25435;SDS011;13363;52.772;-3.890;2024-03-06T09:48:27;2.23;;;1.40;;
25435;SDS011;13363;52.772;-3.890;2024-03-06T09:50:54;2.50;;;1.60;;
25435;SDS011;13363;52.772;-3.890;2024-03-06T09:53:23;1.93;;;1.40;;
25435;SDS011;13363;52.772;-3.890;2024-03-06T09:55:50;2.60;;;1.50;;
25435;SDS011;13363;52.772;-3.890;2024-03-06T09:58:16;2.83;;;1.20;;
25435;SDS011;13363;52.772;-3.890;2024-03-06T10:00:42;1.40;;;1.23;;
25435;SDS011;13363;52.772;-3.890;2024-03-06T10:03:09;4.90;;;1.57;;
25435;SDS011;13363;52.772;-3.890;2024-03-06T10:05:36;3.47;;;1.53;;
25435;SDS011;13363;52.772;-3.890;2024-03-06T10:08:06;3.47;;;2.00;;
25435;SDS011;13363;52.772;-3.890;2024-03-06T10:10:32;4.93;;;2.00;;
25435;SDS011;13363;52.772;-3.890;2024-03-06T10:12:59;6.53;;;2.30;;
25435;SDS011;13363;52.772;-3.890;2024-03-06T10:15:33;1.57;;;1.40;;
25435;SDS011;13363;52.772;-3.890;2024-03-06T10:18:14;8.27;;;2.43;;
25435;SDS011;13363;52.772;-3.890;2024-03-06T10:20:43;4.80;;;1.67;;
25435;SDS011;13363;52.772;-3.890;2024-03-06T10:23:09;5.07;;;2.13;;
25435;SDS011;13363;52.772;-3.890;2024-03-06T10:25:36;5.53;;;2.63;;
25435;SDS011;13363;52.772;-3.890;2024-03-06T10:28:06;5.27;;;1.90;;
25435;SDS011;13363;52.772;-3.890;2024-03-06T10:30:36;7.13;;;2.20;;
25435;SDS011;13363;52.772;-3.890;2024-03-06T10:33:03;3.30;;;1.80;;
25435;SDS011;13363;52.772;-3.890;2024-03-06T10:35:31;2.77;;;2.00;;
25435;SDS011;13363;52.772;-3.890;2024-03-06T10:37:58;3.90;;;2.00;;
25435;SDS011;13363;52.772;-3.890;2024-03-06T10:40:27;5.03;;;2.00;;
25435;SDS011;13363;52.772;-3.890;2024-03-06T10:42:58;5.63;;;2.63;;
25435;SDS011;13363;52.772;-3.890;2024-03-06T10:45:29;3.60;;;2.37;;
25435;SDS011;13363;52.772;-3.890;2024-03-06T10:47:58;6.90;;;2.50;;
25435;SDS011;13363;52.772;-3.890;2024-03-06T10:50:25;3.97;;;2.00;;
25435;SDS011;13363;52.772;-3.890;2024-03-06T10:52:53;4.80;;;2.13;;
25435;SDS011;13363;52.772;-3.890;2024-03-06T10:55:20;5.10;;;2.13;;
25435;SDS011;13363;52.772;-3.890;2024-03-06T10:57:47;6.13;;;2.80;;
25435;SDS011;13363;52.772;-3.890;2024-03-06T11:00:14;3.67;;;1.97;;
25435;SDS011;13363;52.772;-3.890;2024-03-06T11:02:46;7.80;;;2.73;;
25435;SDS011;13363;52.772;-3.890;2024-03-06T11:05:14;5.60;;;2.73;;
25435;SDS011;13363;52.772;-3.890;2024-03-06T11:07:40;7.77;;;2.30;;
25435;SDS011;13363;52.772;-3.890;2024-03-06T11:10:07;5.53;;;2.40;;
25435;SDS011;13363;52.772;-3.890;2024-03-06T11:12:40;3.63;;;2.10;;
25435;SDS011;13363;52.772;-3.890;2024-03-06T11:17:38;6.68;;;2.70;;
25435;SDS011;13363;52.772;-3.890;2024-03-06T11:20:12;8.00;;;2.03;;
25435;SDS011;13363;52.772;-3.890;2024-03-06T11:28:19;3.67;;;2.50;;
25435;SDS011;13363;52.772;-3.890;2024-03-06T11:30:54;4.25;;;2.15;;
25435;SDS011;13363;52.772;-3.890;2024-03-06T11:33:22;3.38;;;2.35;;
25435;SDS011;13363;52.772;-3.890;2024-03-06T11:38:37;3.65;;;1.83;;
25435;SDS011;13363;52.772;-3.890;2024-03-06T11:41:04;5.35;;;2.22;;
25435;SDS011;13363;52.772;-3.890;2024-03-06T11:43:41;6.32;;;2.50;;
25435;SDS011;13363;52.772;-3.890;2024-03-06T11:46:11;3.70;;;2.30;;
25435;SDS011;13363;52.772;-3.890;2024-03-06T11:48:37;3.88;;;2.03;;
25435;SDS011;13363;52.772;-3.890;2024-03-06T11:51:05;4.20;;;2.35;;
25435;SDS011;13363;52.772;-3.890;2024-03-06T11:53:34;3.67;;;2.15;;
25435;SDS011;13363;52.772;-3.890;2024-03-06T11:56:05;4.95;;;2.45;;
25435;SDS011;13363;52.772;-3.890;2024-03-06T11:58:34;5.33;;;2.27;;
25435;SDS011;13363;52.772;-3.890;2024-03-06T12:01:00;3.93;;;2.43;;
25435;SDS011;13363;52.772;-3.890;2024-03-06T12:03:27;7.32;;;2.50;;
25435;SDS011;13363;52.772;-3.890;2024-03-06T12:05:56;3.03;;;2.30;;
25435;SDS011;13363;52.772;-3.890;2024-03-06T12:08:22;4.03;;;2.13;;
25435;SDS011;13363;52.772;-3.890;2024-03-06T12:10:49;4.68;;;2.67;;
25435;SDS011;13363;52.772;-3.890;2024-03-06T12:13:15;3.47;;;2.30;;
25435;SDS011;13363;52.772;-3.890;2024-03-06T12:15:44;4.88;;;2.42;;
25435;SDS011;13363;52.772;-3.890;2024-03-06T12:18:11;4.88;;;2.45;;
25435;SDS011;13363;52.772;-3.890;2024-03-06T12:20:43;4.22;;;2.30;;
25435;SDS011;13363;52.772;-3.890;2024-03-06T12:23:20;4.67;;;2.17;;
25435;SDS011;13363;52.772;-3.890;2024-03-06T12:25:48;4.07;;;2.53;;
25435;SDS011;13363;52.772;-3.890;2024-03-06T12:28:15;7.77;;;2.97;;
25435;SDS011;13363;52.772;-3.890;2024-03-06T12:30:43;2.83;;;2.33;;
25435;SDS011;13363;52.772;-3.890;2024-03-06T12:33:09;6.70;;;3.10;;
25435;SDS011;13363;52.772;-3.890;2024-03-06T12:35:39;7.70;;;2.70;;
25435;SDS011;13363;52.772;-3.890;2024-03-06T12:38:13;8.10;;;2.73;;
25435;SDS011;13363;52.772;-3.890;2024-03-06T12:40:39;6.50;;;2.97;;
25435;SDS011;13363;52.772;-3.890;2024-03-06T12:43:06;7.27;;;3.37;;
25435;SDS011;13363;52.772;-3.890;2024-03-06T12:45:32;4.43;;;3.80;;
25435;SDS011;13363;52.772;-3.890;2024-03-06T12:47:59;4.73;;;2.83;;
25435;SDS011;13363;52.772;-3.890;2024-03-06T12:50:25;5.77;;;3.97;;
25435;SDS011;13363;52.772;-3.890;2024-03-06T12:52:51;6.93;;;3.50;;
25435;SDS011;13363;52.772;-3.890;2024-03-06T12:55:17;5.67;;;4.07;;
25435;SDS011;13363;52.772;-3.890;2024-03-06T12:57:44;9.77;;;4.10;;
25435;SDS011;13363;52.772;-3.890;2024-03-06T13:00:11;6.83;;;4.23;;
25435;SDS011;13363;52.772;-3.890;2024-03-06T13:02:43;8.77;;;3.73;;
25435;SDS011;13363;52.772;-3.890;2024-03-06T13:05:09;9.20;;;4.87;;
25435;SDS011;13363;52.772;-3.890;2024-03-06T13:07:35;9.87;;;5.17;;
25435;SDS011;13363;52.772;-3.890;2024-03-06T13:10:02;8.70;;;5.10;;
25435;SDS011;13363;52.772;-3.890;2024-03-06T13:12:28;7.07;;;4.73;;
25435;SDS011;13363;52.772;-3.890;2024-03-06T13:14:54;9.13;;;4.90;;
25435;SDS011;13363;52.772;-3.890;2024-03-06T13:17:21;5.93;;;5.13;;
25435;SDS011;13363;52.772;-3.890;2024-03-06T13:19:47;5.60;;;5.00;;
25435;SDS011;13363;52.772;-3.890;2024-03-06T13:22:14;10.97;;;5.43;;
25435;SDS011;13363;52.772;-3.890;2024-03-06T13:24:40;6.80;;;4.40;;
25435;SDS011;13363;52.772;-3.890;2024-03-06T13:27:06;9.93;;;5.70;;
25435;SDS011;13363;52.772;-3.890;2024-03-06T13:29:33;11.73;;;5.40;;
25435;SDS011;13363;52.772;-3.890;2024-03-06T13:31:59;10.33;;;5.37;;
25435;SDS011;13363;52.772;-3.890;2024-03-06T13:34:25;6.67;;;5.77;;
25435;SDS011;13363;52.772;-3.890;2024-03-06T13:36:51;11.63;;;6.40;;
25435;SDS011;13363;52.772;-3.890;2024-03-06T13:39:19;8.53;;;5.17;;
25435;SDS011;13363;52.772;-3.890;2024-03-06T13:41:45;10.47;;;5.23;;
25435;SDS011;13363;52.772;-3.890;2024-03-06T13:44:11;8.97;;;5.57;;
25435;SDS011;13363;52.772;-3.890;2024-03-06T13:46:37;9.93;;;5.70;;
25435;SDS011;13363;52.772;-3.890;2024-03-06T13:49:04;9.07;;;5.70;;
25435;SDS011;13363;52.772;-3.890;2024-03-06T13:51:30;6.10;;;5.43;;
25435;SDS011;13363;52.772;-3.890;2024-03-06T13:53:56;7.57;;;5.77;;
25435;SDS011;13363;52.772;-3.890;2024-03-06T13:56:22;10.40;;;5.33;;
25435;SDS011;13363;52.772;-3.890;2024-03-06T13:58:48;7.80;;;5.53;;
25435;SDS011;13363;52.772;-3.890;2024-03-06T14:01:14;10.17;;;5.93;;
25435;SDS011;13363;52.772;-3.890;2024-03-06T14:03:41;10.80;;;5.60;;
25435;SDS011;13363;52.772;-3.890;2024-03-06T14:06:07;6.93;;;5.30;;
25435;SDS011;13363;52.772;-3.890;2024-03-06T14:08:34;6.60;;;5.83;;
25435;SDS011;13363;52.772;-3.890;2024-03-06T14:11:03;8.80;;;5.33;;
25435;SDS011;13363;52.772;-3.890;2024-03-06T14:13:32;9.13;;;5.97;;
25435;SDS011;13363;52.772;-3.890;2024-03-06T14:15:58;10.60;;;5.90;;
25435;SDS011;13363;52.772;-3.890;2024-03-06T14:18:25;8.07;;;4.97;;
25435;SDS011;13363;52.772;-3.890;2024-03-06T14:20:52;10.07;;;5.47;;
25435;SDS011;13363;52.772;-3.890;2024-03-06T14:23:18;10.00;;;5.20;;
25435;SDS011;13363;52.772;-3.890;2024-03-06T14:25:45;8.00;;;5.00;;
25435;SDS011;13363;52.772;-3.890;2024-03-06T14:28:11;9.50;;;5.50;;
25435;SDS011;13363;52.772;-3.890;2024-03-06T14:30:38;10.37;;;5.53;;
25435;SDS011;13363;52.772;-3.890;2024-03-06T14:33:04;9.97;;;5.37;;
25435;SDS011;13363;52.772;-3.890;2024-03-06T14:35:30;9.37;;;5.47;;
25435;SDS011;13363;52.772;-3.890;2024-03-06T14:37:57;8.90;;;5.43;;
25435;SDS011;13363;52.772;-3.890;2024-03-06T14:40:25;6.60;;;5.10;;
25435;SDS011;13363;52.772;-3.890;2024-03-06T14:42:51;6.00;;;4.90;;